Portland, Oregon
Current Conditions -  °F | °C
As of 9:53 AM on Sunday 21 Dec 2014 (Local Time) from KPDX Reporting Station
Overcast Overcast  
Wind Chill: 55°   Ceiling: 7000
Heat Index: 55°   Visibility: 10mi
Dew Point: 50°   Wind: 8mph
Humidity: 83%   Direction: 250°WSW
Pressure: 30.05"   Gusts: NA
Location:  45.51°N, 122.67°W
Report Text: KPDX 211753Z 25007KT 10SM SCT040 BKN070 OVC100 13/10 A3005 RMK AO2 SLP174 T01280100 10133 20122 53039
Loading
Personal Weather Stations






























Interactive Weather Map New forecast layout! Learn more

10-Day Weather Forecast

Advertisements
Track Severe Weather on mobile